createdAt,value
2018-07-24T00:01:37.524Z,21.42
2018-07-24T00:04:08.220Z,21.40
2018-07-24T00:06:38.958Z,21.36
2018-07-24T00:09:10.463Z,21.34
2018-07-24T00:11:41.245Z,21.30
2018-07-24T00:14:12.069Z,21.26
2018-07-24T00:16:42.828Z,21.23
2018-07-24T00:19:13.582Z,21.24
2018-07-24T00:21:44.384Z,21.22
2018-07-24T00:24:15.117Z,21.19
2018-07-24T00:26:45.935Z,21.17
2018-07-24T00:29:16.659Z,21.13
2018-07-24T00:31:47.519Z,21.16
2018-07-24T00:34:18.285Z,21.12
2018-07-24T00:36:49.035Z,21.06
2018-07-24T00:39:19.829Z,21.00
2018-07-24T00:41:50.603Z,20.97
2018-07-24T00:44:21.355Z,20.95
2018-07-24T00:46:52.125Z,20.91
2018-07-24T00:49:22.896Z,20.88
2018-07-24T00:51:53.689Z,20.83
2018-07-24T00:54:24.410Z,20.82
2018-07-24T00:56:55.161Z,20.81
2018-07-24T00:59:25.890Z,20.78
2018-07-24T01:01:56.569Z,20.77
2018-07-24T01:04:27.344Z,20.74
2018-07-24T01:06:58.139Z,20.73
2018-07-24T01:09:28.830Z,20.74
2018-07-24T01:11:59.599Z,20.74
2018-07-24T01:14:30.371Z,20.76
2018-07-24T01:17:01.147Z,20.73
2018-07-24T01:19:31.875Z,20.67
2018-07-24T01:22:02.690Z,20.64
2018-07-24T01:24:33.403Z,20.63
2018-07-24T01:27:04.225Z,20.56
2018-07-24T01:29:34.988Z,20.53
2018-07-24T01:32:05.798Z,20.55
2018-07-24T01:34:36.496Z,20.49
2018-07-24T01:37:07.476Z,20.50
2018-07-24T01:39:38.201Z,20.45
2018-07-24T01:42:09.245Z,20.40
2018-07-24T01:44:39.967Z,20.45
2018-07-24T01:47:10.703Z,20.41
2018-07-24T01:49:41.427Z,20.41
2018-07-24T01:52:12.192Z,20.38
2018-07-24T01:54:42.906Z,20.36
2018-07-24T01:57:13.747Z,20.35
2018-07-24T01:59:44.423Z,20.29
2018-07-24T02:02:15.174Z,20.25
2018-07-24T02:04:46.041Z,20.23
2018-07-24T02:07:16.815Z,20.26
2018-07-24T02:09:47.585Z,20.20
2018-07-24T02:12:18.291Z,20.21
2018-07-24T02:14:49.027Z,20.18
2018-07-24T02:17:19.686Z,20.17
2018-07-24T02:19:50.448Z,20.12
2018-07-24T02:22:21.128Z,20.14
2018-07-24T02:24:52.104Z,20.14
2018-07-24T02:27:22.840Z,20.13
2018-07-24T02:30:07.875Z,20.11
2018-07-24T02:32:38.658Z,20.05
2018-07-24T02:35:09.519Z,20.00
2018-07-24T02:37:40.192Z,20.01
2018-07-24T02:40:11.016Z,19.97
2018-07-24T02:42:41.755Z,19.97
2018-07-24T02:45:12.585Z,19.99
2018-07-24T02:47:43.335Z,19.95
2018-07-24T02:50:14.202Z,19.91
2018-07-24T02:52:44.587Z,19.90
2018-07-24T02:55:15.300Z,19.89
2018-07-24T02:57:46.025Z,19.85
2018-07-24T03:00:16.770Z,19.84
2018-07-24T03:02:47.554Z,19.82
2018-07-24T03:05:18.360Z,19.79
2018-07-24T03:07:49.035Z,19.79
2018-07-24T03:10:19.749Z,19.80
2018-07-24T03:12:50.582Z,19.82
2018-07-24T03:15:21.256Z,19.80
2018-07-24T03:17:52.047Z,19.74
2018-07-24T03:20:22.776Z,19.75
2018-07-24T03:22:54.009Z,19.68
2018-07-24T03:25:24.757Z,19.67
2018-07-24T03:27:55.464Z,19.67
2018-07-24T03:30:26.212Z,19.66
2018-07-24T03:32:56.979Z,19.60
2018-07-24T03:35:27.679Z,19.59
2018-07-24T03:37:58.441Z,19.59
2018-07-24T03:40:29.206Z,19.57
2018-07-24T03:42:59.950Z,19.59
2018-07-24T03:45:30.704Z,19.57
2018-07-24T03:48:01.467Z,19.53
2018-07-24T03:50:32.295Z,19.53
2018-07-24T03:53:03.017Z,19.55
2018-07-24T03:55:33.797Z,19.55
2018-07-24T03:58:04.570Z,19.63
2018-07-24T04:00:35.295Z,19.58
2018-07-24T04:03:06.090Z,19.57
2018-07-24T04:05:36.874Z,19.58
2018-07-24T04:08:07.899Z,19.61
2018-07-24T04:10:38.664Z,19.62
2018-07-24T04:13:09.520Z,19.67
2018-07-24T04:15:40.333Z,19.65
2018-07-24T04:18:11.143Z,19.65
2018-07-24T04:20:41.917Z,19.69
2018-07-24T04:23:12.631Z,19.70
2018-07-24T04:25:43.482Z,19.74
2018-07-24T04:28:14.233Z,19.75
2018-07-24T04:30:44.997Z,19.78
2018-07-24T04:33:15.732Z,19.81
2018-07-24T04:35:46.510Z,19.85
2018-07-24T04:38:17.261Z,19.90
2018-07-24T04:40:48.146Z,19.95
2018-07-24T04:43:19.208Z,20.00
2018-07-24T04:45:49.936Z,20.05
2018-07-24T04:48:20.737Z,20.12
2018-07-24T04:50:51.447Z,20.17
2018-07-24T04:53:22.246Z,20.23
2018-07-24T04:55:53.021Z,20.28
2018-07-24T04:58:23.760Z,20.34
2018-07-24T05:00:54.740Z,20.39
2018-07-24T05:03:25.637Z,20.44
2018-07-24T05:05:56.391Z,20.50
2018-07-24T05:08:27.180Z,20.56
2018-07-24T05:10:58.877Z,20.60
2018-07-24T05:13:29.632Z,20.68
2018-07-24T05:16:00.459Z,20.77
2018-07-24T05:18:31.269Z,20.83
2018-07-24T05:21:02.109Z,20.90
2018-07-24T05:23:32.933Z,20.98
2018-07-24T05:26:03.609Z,21.09
2018-07-24T05:28:34.372Z,21.18
2018-07-24T05:31:05.243Z,21.25
2018-07-24T05:33:35.944Z,21.32
2018-07-24T05:36:06.718Z,21.39
2018-07-24T05:38:37.443Z,21.53
2018-07-24T05:41:08.290Z,21.67
2018-07-24T05:44:41.887Z,21.80
2018-07-24T05:47:12.638Z,21.88
2018-07-24T05:49:43.308Z,21.90
2018-07-24T05:52:13.951Z,21.89
2018-07-24T05:54:44.574Z,21.93
2018-07-24T05:57:15.244Z,21.98
2018-07-24T05:59:45.908Z,22.09
2018-07-24T06:02:16.599Z,22.16
2018-07-24T06:04:47.278Z,22.26
2018-07-24T06:07:18.122Z,22.35
2018-07-24T06:09:48.910Z,22.45
2018-07-24T06:12:19.728Z,22.51
2018-07-24T06:14:50.454Z,22.58
2018-07-24T06:17:21.287Z,22.65
2018-07-24T06:19:51.929Z,22.79
2018-07-24T06:22:22.680Z,22.90
2018-07-24T06:24:53.367Z,23.06
2018-07-24T06:27:24.030Z,23.17
2018-07-24T06:29:54.753Z,23.30
2018-07-24T06:32:25.492Z,23.43
2018-07-24T06:34:56.178Z,23.54
2018-07-24T06:37:26.902Z,23.70
2018-07-24T06:39:57.623Z,23.81
2018-07-24T06:42:28.307Z,23.85
2018-07-24T06:44:59.082Z,23.99
2018-07-24T06:47:29.831Z,24.16
2018-07-24T06:50:00.691Z,24.29
2018-07-24T06:52:31.391Z,24.45
2018-07-24T06:55:02.121Z,24.60
2018-07-24T06:57:32.858Z,24.74
2018-07-24T07:00:03.674Z,24.91
2018-07-24T07:02:34.316Z,25.10
2018-07-24T07:05:05.263Z,25.22
2018-07-24T07:07:35.966Z,25.39
2018-07-24T07:10:06.801Z,25.48
2018-07-24T07:12:37.692Z,25.66
2018-07-24T07:15:09.071Z,25.85
2018-07-24T07:17:39.710Z,26.06
2018-07-24T07:20:10.438Z,26.22
2018-07-24T07:22:41.146Z,26.40
2018-07-24T07:25:11.840Z,26.55
2018-07-24T07:27:42.530Z,26.61
2018-07-24T07:30:13.215Z,26.79
2018-07-24T07:32:43.912Z,26.92
2018-07-24T07:35:14.584Z,27.14
2018-07-24T07:37:45.271Z,27.43
2018-07-24T07:40:16.008Z,27.69
2018-07-24T07:42:46.706Z,27.89
2018-07-24T07:45:17.502Z,28.06
2018-07-24T07:47:48.088Z,28.22
2018-07-24T07:50:18.818Z,28.45
2018-07-24T07:52:49.554Z,28.73
2018-07-24T07:55:19.915Z,28.90
2018-07-24T07:57:50.544Z,29.11
2018-07-24T08:00:21.207Z,29.32
2018-07-24T08:02:52.203Z,29.54
2018-07-24T08:05:22.850Z,29.79
2018-07-24T08:07:53.554Z,29.98
2018-07-24T08:10:24.284Z,30.17
2018-07-24T08:12:55.038Z,30.09
2018-07-24T08:15:25.679Z,30.01
2018-07-24T08:17:56.450Z,29.89
2018-07-24T08:20:27.268Z,30.04
2018-07-24T08:22:57.952Z,30.35
2018-07-24T08:25:59.864Z,30.40
2018-07-24T08:28:30.562Z,30.61
2018-07-24T08:31:01.213Z,30.65
2018-07-24T08:33:31.939Z,30.92
2018-07-24T08:36:02.737Z,31.18
2018-07-24T08:38:33.443Z,31.36
2018-07-24T08:41:04.205Z,31.60
2018-07-24T08:43:34.913Z,31.96
2018-07-24T08:46:05.824Z,32.15
2018-07-24T08:48:36.932Z,31.98
2018-07-24T08:51:07.703Z,32.00
2018-07-24T08:53:38.605Z,32.16
2018-07-24T08:56:09.168Z,32.47
2018-07-24T08:58:39.949Z,32.54
2018-07-24T09:01:10.680Z,32.70
2018-07-24T09:03:41.484Z,32.53
2018-07-24T09:06:12.144Z,32.72
2018-07-24T09:08:42.813Z,32.85
2018-07-24T09:11:13.506Z,32.57
2018-07-24T09:13:44.271Z,32.55
2018-07-24T09:16:14.934Z,32.57
2018-07-24T09:18:45.649Z,32.92
2018-07-24T09:21:16.315Z,33.07
2018-07-24T09:23:47.200Z,33.36
2018-07-24T09:26:17.897Z,33.17
2018-07-24T09:28:48.613Z,33.27
2018-07-24T09:31:19.538Z,33.57
2018-07-24T09:33:50.239Z,33.91
2018-07-24T09:36:20.961Z,34.17
2018-07-24T09:38:51.637Z,33.95
2018-07-24T09:41:22.356Z,33.71
2018-07-24T09:43:53.141Z,33.98
2018-07-24T09:46:23.873Z,33.95
2018-07-24T09:48:54.627Z,33.79
2018-07-24T09:51:25.288Z,33.61
2018-07-24T09:53:55.955Z,33.66
2018-07-24T09:56:26.719Z,33.79
2018-07-24T09:58:57.378Z,34.01
2018-07-24T10:01:31.476Z,34.54
2018-07-24T10:04:02.862Z,34.93
2018-07-24T10:06:34.720Z,35.19
2018-07-24T10:09:08.454Z,35.51
2018-07-24T10:11:39.166Z,35.81
2018-07-24T10:14:09.869Z,35.82
2018-07-24T10:16:40.646Z,35.87
2018-07-24T10:19:11.256Z,36.35
2018-07-24T10:21:41.921Z,36.33
2018-07-24T10:24:12.637Z,36.33
2018-07-24T10:26:43.360Z,36.40
2018-07-24T10:29:14.096Z,36.44
2018-07-24T10:31:44.759Z,36.20
2018-07-24T10:34:15.464Z,35.96
2018-07-24T10:36:46.117Z,36.35
2018-07-24T10:39:16.828Z,36.75
2018-07-24T10:41:47.592Z,36.79
2018-07-24T10:44:18.282Z,36.28
2018-07-24T10:46:48.979Z,36.42
2018-07-24T10:49:19.711Z,36.66
2018-07-24T10:51:50.006Z,36.55
2018-07-24T10:54:20.514Z,36.29
2018-07-24T10:56:51.184Z,36.00
2018-07-24T10:59:21.896Z,35.28
2018-07-24T11:01:52.611Z,34.96
2018-07-24T11:04:23.267Z,35.17
2018-07-24T11:06:54.023Z,35.39
2018-07-24T11:09:24.693Z,35.79
2018-07-24T11:11:55.387Z,36.28
2018-07-24T11:14:26.064Z,36.25
2018-07-24T11:16:56.843Z,36.22
2018-07-24T11:19:27.172Z,36.48
2018-07-24T11:21:57.730Z,36.50
2018-07-24T11:24:28.011Z,36.80
2018-07-24T11:26:58.580Z,36.76
2018-07-24T11:29:29.289Z,36.54
2018-07-24T11:32:00.000Z,36.97
2018-07-24T11:34:30.723Z,37.16
2018-07-24T11:37:01.596Z,37.64
2018-07-24T11:39:32.309Z,38.04
2018-07-24T11:42:03.053Z,38.22
2018-07-24T11:44:33.824Z,38.07
2018-07-24T11:47:04.577Z,38.28
2018-07-24T11:49:35.330Z,38.21
2018-07-24T11:52:06.052Z,38.59
2018-07-24T11:54:36.829Z,38.42
2018-07-24T11:57:07.602Z,38.25
2018-07-24T11:59:38.360Z,38.22
2018-07-24T12:02:09.124Z,38.03
2018-07-24T12:04:39.855Z,37.85
2018-07-24T12:07:10.544Z,38.13
2018-07-24T12:09:41.233Z,38.38
2018-07-24T12:12:11.920Z,38.58
2018-07-24T12:14:42.759Z,38.77
2018-07-24T12:17:13.409Z,38.99
2018-07-24T12:19:44.139Z,39.51
2018-07-24T12:22:14.880Z,39.27
2018-07-24T12:24:45.572Z,39.48
2018-07-24T12:27:16.404Z,39.17
2018-07-24T12:29:47.023Z,38.97
2018-07-24T12:32:17.775Z,38.45
2018-07-24T12:34:48.484Z,38.56
2018-07-24T12:37:19.203Z,38.80
2018-07-24T12:39:49.910Z,38.77
2018-07-24T12:42:20.214Z,39.47
2018-07-24T12:44:50.828Z,39.55
2018-07-24T12:47:21.668Z,39.50
2018-07-24T12:49:52.481Z,39.49
2018-07-24T12:52:23.845Z,39.01
2018-07-24T12:54:54.495Z,38.75
2018-07-24T12:57:25.219Z,38.91
2018-07-24T12:59:55.959Z,38.62
2018-07-24T13:02:26.660Z,38.63
2018-07-24T13:04:57.465Z,39.08
2018-07-24T13:07:29.317Z,39.22
2018-07-24T13:10:00.142Z,39.50
2018-07-24T13:12:30.931Z,39.33
2018-07-24T13:15:01.702Z,39.70
2018-07-24T13:17:32.403Z,39.94
2018-07-24T13:20:03.253Z,39.94
2018-07-24T13:22:34.193Z,39.85
2018-07-24T13:25:05.181Z,39.64
2018-07-24T13:27:35.931Z,39.79
2018-07-24T13:30:06.838Z,39.63
2018-07-24T13:32:37.943Z,39.29
2018-07-24T13:35:08.716Z,39.02
2018-07-24T13:37:39.499Z,38.86
2018-07-24T13:40:10.310Z,38.75
2018-07-24T13:42:40.961Z,38.64
2018-07-24T13:45:11.661Z,38.56
2018-07-24T13:47:42.341Z,38.26
2018-07-24T13:50:12.986Z,38.07
2018-07-24T13:52:43.727Z,37.98
2018-07-24T13:55:14.574Z,37.79
2018-07-24T13:57:45.370Z,37.73
2018-07-24T14:00:16.473Z,38.09
2018-07-24T14:02:47.223Z,38.54
2018-07-24T14:05:17.952Z,38.82
2018-07-24T14:07:48.674Z,39.17
2018-07-24T14:10:19.432Z,39.34
2018-07-24T14:12:51.008Z,39.08
2018-07-24T14:15:21.691Z,38.70
2018-07-24T14:17:52.421Z,38.31
2018-07-24T14:20:23.090Z,38.23
2018-07-24T14:22:53.872Z,38.02
2018-07-24T14:25:24.724Z,37.65
2018-07-24T14:27:55.544Z,37.52
2018-07-24T14:30:26.224Z,37.32
2018-07-24T14:32:56.957Z,37.17
2018-07-24T14:35:27.776Z,37.13
2018-07-24T14:37:58.531Z,37.14
2018-07-24T14:40:29.230Z,37.39
2018-07-24T14:42:59.866Z,37.62
2018-07-24T14:45:30.531Z,37.86
2018-07-24T14:48:01.165Z,37.81
2018-07-24T14:50:31.862Z,37.60
2018-07-24T14:53:02.556Z,37.48
2018-07-24T14:55:33.200Z,37.71
2018-07-24T14:58:03.908Z,37.94
2018-07-24T15:00:34.554Z,37.81
2018-07-24T15:03:05.343Z,37.69
2018-07-24T15:05:35.976Z,37.43
2018-07-24T15:08:06.687Z,37.39
2018-07-24T15:10:37.346Z,37.27
2018-07-24T15:13:08.055Z,37.41
2018-07-24T15:15:38.749Z,37.71
2018-07-24T15:18:09.448Z,37.99
2018-07-24T15:20:40.125Z,38.33
2018-07-24T15:23:10.801Z,38.48
2018-07-24T15:25:41.751Z,38.57
2018-07-24T15:28:12.539Z,38.68
2018-07-24T15:30:43.282Z,38.79
2018-07-24T15:33:16.871Z,38.74
2018-07-24T15:35:47.586Z,38.93
2018-07-24T15:38:23.184Z,38.86
2018-07-24T15:40:53.531Z,38.90
2018-07-24T15:43:24.083Z,38.71
2018-07-24T15:45:54.749Z,38.63
2018-07-24T15:48:25.416Z,38.66
2018-07-24T15:50:56.104Z,38.36
2018-07-24T15:53:26.795Z,38.27
2018-07-24T15:55:57.545Z,38.34
2018-07-24T15:58:28.203Z,38.30
2018-07-24T16:00:58.927Z,38.34
2018-07-24T16:03:29.642Z,38.31
2018-07-24T16:06:00.336Z,38.30
2018-07-24T16:08:31.172Z,38.30
2018-07-24T16:11:01.867Z,38.21
2018-07-24T16:13:32.521Z,38.19
2018-07-24T16:16:03.205Z,38.17
2018-07-24T16:18:33.901Z,38.00
2018-07-24T16:21:04.637Z,37.86
2018-07-24T16:23:35.299Z,37.77
2018-07-24T16:26:06.041Z,37.65
2018-07-24T16:28:36.970Z,37.31
2018-07-24T16:31:07.781Z,37.07
2018-07-24T16:33:38.569Z,36.93
2018-07-24T16:36:09.252Z,36.78
2018-07-24T16:38:39.966Z,36.69
2018-07-24T16:41:10.731Z,36.59
2018-07-24T16:43:41.543Z,36.44
2018-07-24T16:46:12.181Z,36.27
2018-07-24T16:48:42.894Z,36.13
2018-07-24T16:51:13.546Z,35.99
2018-07-24T16:53:44.223Z,35.87
2018-07-24T16:56:16.098Z,35.68
2018-07-24T16:58:46.722Z,35.54
2018-07-24T17:01:17.544Z,35.50
2018-07-24T17:03:48.255Z,35.53
2018-07-24T17:06:18.908Z,35.50
2018-07-24T17:08:49.647Z,35.51
2018-07-24T17:11:20.344Z,35.30
2018-07-24T17:13:51.090Z,35.06
2018-07-24T17:16:21.827Z,35.01
2018-07-24T17:18:52.549Z,35.02
2018-07-24T17:24:08.308Z,34.84
2018-07-24T17:26:39.080Z,34.70
2018-07-24T17:29:09.759Z,34.55
2018-07-24T17:31:40.482Z,34.57
2018-07-24T17:34:11.115Z,34.55
2018-07-24T17:36:41.789Z,34.48
2018-07-24T17:39:12.539Z,34.39
2018-07-24T17:41:43.283Z,34.28
2018-07-24T17:44:13.945Z,34.23
2018-07-24T17:46:44.689Z,34.20
2018-07-24T17:49:15.342Z,34.16
2018-07-24T17:51:46.039Z,34.07
2018-07-24T17:54:16.815Z,34.04
2018-07-24T17:56:47.530Z,33.99
2018-07-24T17:59:18.283Z,33.95
2018-07-24T18:01:48.922Z,33.86
2018-07-24T18:04:19.680Z,33.80
2018-07-24T18:06:50.444Z,33.76
2018-07-24T18:09:21.211Z,33.72
2018-07-24T18:11:51.969Z,33.63
2018-07-24T18:14:22.787Z,33.52
2018-07-24T18:16:53.465Z,33.40
2018-07-24T18:19:24.177Z,33.20
2018-07-24T18:21:54.892Z,33.04
2018-07-24T18:24:25.594Z,32.86
2018-07-24T18:26:57.184Z,32.72
2018-07-24T18:29:27.899Z,32.57
2018-07-24T18:31:58.889Z,32.46
2018-07-24T18:34:36.147Z,32.40
2018-07-24T18:37:08.482Z,32.33
2018-07-24T18:39:39.357Z,32.24
2018-07-24T18:42:14.244Z,32.10
2018-07-24T18:44:44.651Z,31.94
2018-07-24T18:47:15.490Z,31.82
2018-07-24T18:49:46.453Z,31.69
2018-07-24T18:52:17.233Z,31.59
2018-07-24T18:54:48.028Z,31.52
2018-07-24T18:57:18.846Z,31.47
2018-07-24T18:59:49.650Z,31.42
2018-07-24T19:02:20.733Z,31.36
2018-07-24T19:04:51.601Z,31.28
2018-07-24T19:07:22.547Z,31.22
2018-07-24T19:09:53.403Z,31.16
2018-07-24T19:12:25.178Z,31.09
2018-07-24T19:14:55.909Z,31.01
2018-07-24T19:17:27.635Z,30.94
2018-07-24T19:19:58.481Z,30.86
2018-07-24T19:22:29.335Z,30.79
2018-07-24T19:25:00.603Z,30.70
2018-07-24T19:27:37.592Z,30.62
2018-07-24T19:30:14.167Z,30.55
2018-07-24T19:32:44.915Z,30.47
2018-07-24T19:35:15.681Z,30.40
2018-07-24T19:37:46.486Z,30.32
2018-07-24T19:40:17.404Z,30.26
2018-07-24T19:42:48.207Z,30.20
2018-07-24T19:45:18.995Z,30.14
2018-07-24T19:47:49.785Z,30.04
2018-07-24T19:50:20.556Z,29.98
2018-07-24T19:52:51.289Z,29.87
2018-07-24T19:55:22.081Z,29.79
2018-07-24T19:57:52.868Z,29.70
2018-07-24T20:00:23.700Z,29.62
2018-07-24T20:02:54.441Z,29.53
2018-07-24T20:05:25.607Z,29.44
2018-07-24T20:07:56.344Z,29.37
2018-07-24T20:10:27.463Z,29.30
2018-07-24T20:12:58.255Z,29.23
2018-07-24T20:15:28.962Z,29.16
2018-07-24T20:18:00.025Z,29.10
2018-07-24T20:20:31.076Z,29.06
2018-07-24T20:23:01.966Z,29.02
2018-07-24T20:25:32.529Z,28.96
2018-07-24T20:28:03.428Z,28.92
2018-07-24T20:30:34.053Z,28.87
2018-07-24T20:33:04.803Z,28.83
2018-07-24T20:35:35.492Z,28.76
2018-07-24T20:38:06.163Z,28.71
2018-07-24T20:40:36.875Z,28.65
2018-07-24T20:43:07.657Z,28.59
2018-07-24T20:45:38.338Z,28.52
2018-07-24T20:48:09.028Z,28.47
2018-07-24T20:50:39.730Z,28.42
2018-07-24T20:53:10.496Z,28.37
2018-07-24T20:55:41.129Z,28.34
2018-07-24T20:58:11.768Z,28.31
2018-07-24T21:00:42.417Z,28.31
2018-07-24T21:03:13.133Z,28.29
2018-07-24T21:05:43.972Z,28.24
2018-07-24T21:08:14.636Z,28.18
2018-07-24T21:10:45.333Z,28.13
2018-07-24T21:13:15.968Z,28.08
2018-07-24T21:15:46.641Z,28.03
2018-07-24T21:18:17.343Z,27.99
2018-07-24T21:20:48.100Z,27.96
2018-07-24T21:23:18.868Z,27.93
2018-07-24T21:25:49.574Z,27.93
2018-07-24T21:28:20.307Z,27.93
2018-07-24T21:30:51.032Z,27.90
2018-07-24T21:33:21.784Z,27.85
2018-07-24T21:35:52.575Z,27.81
2018-07-24T21:38:23.299Z,27.77
2018-07-24T21:40:54.028Z,27.72
2018-07-24T21:43:24.705Z,27.67
2018-07-24T21:45:55.410Z,27.63
2018-07-24T21:48:26.207Z,27.59
2018-07-24T21:50:56.998Z,27.57
2018-07-24T21:53:27.750Z,27.54
2018-07-24T21:55:58.422Z,27.51
2018-07-24T21:58:29.131Z,27.46
2018-07-24T22:01:05.039Z,27.44
2018-07-24T22:03:35.769Z,27.42
2018-07-24T22:06:06.576Z,27.38
2018-07-24T22:08:37.597Z,27.39
2018-07-24T22:11:08.381Z,27.37
2018-07-24T22:13:39.121Z,27.34
2018-07-24T22:16:09.884Z,27.32
2018-07-24T22:18:40.587Z,27.29
2018-07-24T22:21:11.343Z,27.23
2018-07-24T22:23:42.034Z,27.18
2018-07-24T22:26:12.784Z,27.12
2018-07-24T22:28:43.578Z,27.06
2018-07-24T22:31:14.288Z,27.00
2018-07-24T22:33:45.067Z,26.95
2018-07-24T22:36:15.787Z,26.90
2018-07-24T22:38:46.511Z,26.82
2018-07-24T22:41:17.274Z,26.79
2018-07-24T22:43:47.943Z,26.74
2018-07-24T22:46:18.754Z,26.67
2018-07-24T22:48:49.417Z,26.60
2018-07-24T22:51:20.167Z,26.56
2018-07-24T22:53:50.912Z,26.49
2018-07-24T22:56:21.600Z,26.46
2018-07-24T22:58:52.365Z,26.39
2018-07-24T23:01:23.122Z,26.33
2018-07-24T23:03:53.848Z,26.29
2018-07-24T23:06:24.532Z,26.26
2018-07-24T23:08:55.223Z,26.24
2018-07-24T23:11:25.940Z,26.19
2018-07-24T23:13:56.584Z,26.14
2018-07-24T23:16:27.335Z,26.11
2018-07-24T23:18:58.044Z,26.09
2018-07-24T23:21:28.749Z,26.08
2018-07-24T23:23:59.508Z,26.06
2018-07-24T23:26:30.198Z,26.02
2018-07-24T23:29:00.880Z,25.98
2018-07-24T23:31:31.609Z,25.91
2018-07-24T23:34:02.303Z,25.86
2018-07-24T23:36:33.035Z,25.79
2018-07-24T23:39:06.479Z,25.72
2018-07-24T23:41:37.201Z,25.65
2018-07-24T23:44:08.272Z,25.57
2018-07-24T23:46:39.521Z,25.50
2018-07-24T23:49:10.247Z,25.45
2018-07-24T23:51:40.888Z,25.40
2018-07-24T23:54:11.594Z,25.36
2018-07-24T23:56:42.244Z,25.33
2018-07-24T23:59:12.927Z,25.31
